Cordoba, Cordoba Airport (LEBA)

NameCordoba Airport
CityCordoba
CountrySpain
ICAOLEBA
IATAODB
Altitude91 m
CoordinatesGoogle Map
Live Air TrafficLiveATC.net
METARLEBA 252000Z AUTO 18013KT 9999 NCD 28/16 Q1012
2019-08-25 20:00:00 Wind: South (180°) 6.69 m/s - Visibility: > 10000 m - Temperature: 28 °C - Dew point: 16 °C - Humidity: 48.1% - Pressure: 1012 hPa

Sorry, no flights used the airport in this database.